CheckWX is a tool to help pilots better visualize weather data.  It is not intended as a substitute for an official pre-flight weather briefing.

00:34:38 UTC

KPQN METAR
Pipestone Municipal Airport
Pipestone, Minnesota, USA
Current

19 mins ago

KPQN 280016Z 00000KT 10SM 26/12 A2992 RMK AO2
Observed
May-28 @ 00:16 UTC
Visibility
Cloud Levels
Temperature
26°C / 79°F
Dewpoint
12°C / 54°F
Humidity
42%
Altimeter
29.92" Hg
Pressure
1013.22 hPa
Previous

40 mins ago

KPQN 272355Z 11003KT 10SM 26/12 A2992 RMK AO2
Observed
May-27 @ 23:55 UTC
Wind
  • 110° at 3 KTS
Visibility
Cloud Levels
Temperature
26°C / 79°F
Dewpoint
12°C / 54°F
Humidity
42%
Altimeter
29.92" Hg
Pressure
1013.22 hPa
Previous

60 mins ago

KPQN 272335Z 03003KT 10SM 27/10 A2992 RMK AO2
Observed
May-27 @ 23:35 UTC
Wind
  • 030° at 3 KTS
Visibility
Cloud Levels
Temperature
27°C / 81°F
Dewpoint
10°C / 50°F
Humidity
34%
Altimeter
29.92" Hg
Pressure
1013.22 hPa